KGTB

Wheeler-Sack AAF Airport

Fort Drum, New York, USA
TAF AMD KGTB 251747Z 2517/2623 11009KT 6000 -RA BKN010 OVC025 620709 QNH2975INS BECMG 2523/2524 12009KT 4800 -RA BR OVC006 620709 QNH2961INS WND 27009KT AFT 2606 TX14/2520Z TN05/2609Z
Issued Valid From Valid To
Apr-25 @ 17:47 UTC
(17 minutes ago)
Apr-25 @ 17:00 UTC
(an hour ago)
Apr-26 @ 23:00 UTC
(-1 days ago)
Apr-25 @ 17:00 to Apr-25 @ 23:00
TAF AMD KGTB 251747Z 2517/2623 11009KT 6000 -RA BKN010 OVC025 620709 QNH2975INS
Wind Visibility Clouds Conditions Readings Icing
110° at 9 knots 31/73 miles
  • Broken at 1,000' AGL
  • Overcast at 2,500' AGL
  • Light Rain
Altimeter 29.76" Hg
Pressure 1008 hPa
Light icing in cloud expected at 7,000' AGL extending to 16,000' AGL
Becoming Apr-25 @ 23:00 to Apr-26 @ 23:00
BECMG 2523/2524 12009KT 4800 -RA BR OVC006 620709 QNH2961INS WND 27009KT AFT 2606 TX14/2520Z TN05/2609Z
Wind Visibility Clouds Conditions Readings Icing
120° at 9 knots 21/98 miles
  • Overcast at 600' AGL
  • Light Rain
  • Mist
Altimeter 29.62" Hg
Pressure 1003 hPa
Light icing in cloud expected at 7,000' AGL extending to 16,000' AGL
TAF AMD KGTB 251747Z 2517/2623 11009KT 6000 -RA BKN010 OVC025 620709 QNH2975INS BECMG 2523/2524 12009KT 4800 -RA BR OVC006 620709 QNH2961INS WND 27009KT AFT 2606 TX14/2520Z TN05/2609Z
Issued Apr-25 @ 17:47 UTC
(17 minutes ago)
Valid From Apr-25 @ 17:00 UTC
(an hour ago)
Valid To Apr-26 @ 23:00 UTC
(-1 days ago)
Apr-25 @ 17:00 - Apr-25 @ 23:00
Wind Visibility
110° at 9 knots 31/73 miles
Clouds
  • Broken at 1,000' AGL
  • Overcast at 2,500' AGL
Conditions
  • Light Rain
Becoming Apr-25 @ 23:00 - Apr-26 @ 23:00
Wind Visibility
120° at 9 knots 21/98 miles
Clouds
  • Overcast at 600' AGL
Conditions
  • Light Rain
  • Mist